createdAt,value
2024-03-06T00:01:35.339Z,98598.00
2024-03-06T00:04:04.863Z,98586.00
2024-03-06T00:06:31.678Z,98594.00
2024-03-06T00:08:58.273Z,98604.00
2024-03-06T00:11:25.111Z,98595.00
2024-03-06T00:13:52.159Z,98598.00
2024-03-06T00:16:20.314Z,98603.00
2024-03-06T00:18:47.483Z,98614.00
2024-03-06T00:21:14.474Z,98600.00
2024-03-06T00:23:41.083Z,98611.00
2024-03-06T00:26:07.627Z,98620.00
2024-03-06T00:28:34.173Z,98617.00
2024-03-06T00:31:00.878Z,98621.00
2024-03-06T00:33:27.419Z,98624.00
2024-03-06T00:35:53.936Z,98613.00
2024-03-06T00:38:20.684Z,98619.00
2024-03-06T00:40:47.331Z,98618.00
2024-03-06T00:43:13.962Z,98618.00
2024-03-06T00:45:40.887Z,98622.00
2024-03-06T00:48:07.931Z,98623.00
2024-03-06T00:50:34.737Z,98639.00
2024-03-06T00:53:01.298Z,98639.00
2024-03-06T00:55:27.876Z,98615.00
2024-03-06T00:57:54.405Z,98624.00
2024-03-06T01:00:21.355Z,98620.00
2024-03-06T01:02:48.515Z,98615.00
2024-03-06T01:05:15.276Z,98621.00
2024-03-06T01:07:41.890Z,98619.00
2024-03-06T01:10:09.422Z,98618.00
2024-03-06T01:12:36.724Z,98622.00
2024-03-06T01:15:04.102Z,98619.00
2024-03-06T01:17:30.918Z,98615.00
2024-03-06T01:19:57.611Z,98615.00
2024-03-06T01:22:24.207Z,98623.00
2024-03-06T01:24:51.965Z,98627.00
2024-03-06T01:27:18.476Z,98626.00
2024-03-06T01:29:45.068Z,98621.00
2024-03-06T01:32:11.701Z,98623.00
2024-03-06T01:34:38.765Z,98623.00
2024-03-06T01:37:05.553Z,98624.00
2024-03-06T01:39:32.165Z,98631.00
2024-03-06T01:41:58.721Z,98629.00
2024-03-06T01:44:25.452Z,98623.00
2024-03-06T01:46:52.040Z,98641.00
2024-03-06T01:49:28.417Z,98642.00
2024-03-06T01:52:00.856Z,98643.00
2024-03-06T01:54:27.877Z,98636.00
2024-03-06T01:56:56.721Z,98636.00
2024-03-06T01:59:35.456Z,98639.00
2024-03-06T02:02:04.951Z,98637.00
2024-03-06T02:04:32.710Z,98628.00
2024-03-06T02:06:59.418Z,98637.00
2024-03-06T02:09:26.353Z,98624.00
2024-03-06T02:11:52.988Z,98625.00
2024-03-06T02:14:19.672Z,98622.00
2024-03-06T02:16:46.529Z,98621.00
2024-03-06T02:19:13.195Z,98621.00
2024-03-06T02:21:39.927Z,98618.00
2024-03-06T02:24:06.587Z,98626.00
2024-03-06T02:26:33.103Z,98628.00
2024-03-06T02:28:59.711Z,98628.00
2024-03-06T02:31:26.515Z,98634.00
2024-03-06T02:33:53.101Z,98626.00
2024-03-06T02:36:20.125Z,98628.00
2024-03-06T02:38:47.022Z,98628.00
2024-03-06T02:41:17.024Z,98630.00
2024-03-06T02:43:44.250Z,98632.00
2024-03-06T02:46:11.211Z,98642.00
2024-03-06T02:48:37.853Z,98645.00
2024-03-06T02:51:04.525Z,98636.00
2024-03-06T02:53:31.331Z,98638.00
2024-03-06T02:55:58.144Z,98650.00
2024-03-06T02:58:24.840Z,98636.00
2024-03-06T03:00:51.559Z,98644.00
2024-03-06T03:03:18.160Z,98642.00
2024-03-06T03:05:44.724Z,98643.00
2024-03-06T03:08:11.643Z,98641.00
2024-03-06T03:10:38.260Z,98637.00
2024-03-06T03:13:06.019Z,98637.00
2024-03-06T03:15:33.940Z,98634.00
2024-03-06T03:18:00.619Z,98632.00
2024-03-06T03:20:27.159Z,98635.00
2024-03-06T03:22:53.783Z,98642.00
2024-03-06T03:25:23.008Z,98647.00
2024-03-06T03:27:49.623Z,98653.00
2024-03-06T03:30:17.275Z,98642.00
2024-03-06T03:32:43.919Z,98637.00
2024-03-06T03:35:10.890Z,98640.00
2024-03-06T03:37:37.625Z,98649.00
2024-03-06T03:40:04.496Z,98645.00
2024-03-06T03:42:31.418Z,98652.00
2024-03-06T03:44:58.013Z,98648.00
2024-03-06T03:47:24.652Z,98652.00
2024-03-06T03:50:00.017Z,98649.00
2024-03-06T03:52:33.734Z,98645.00
2024-03-06T03:55:00.521Z,98654.00
2024-03-06T03:57:27.235Z,98657.00
2024-03-06T03:59:54.958Z,98662.00
2024-03-06T04:02:22.331Z,98662.00
2024-03-06T04:04:49.277Z,98663.00
2024-03-06T04:07:17.318Z,98660.00
2024-03-06T04:09:44.209Z,98665.00
2024-03-06T04:12:10.902Z,98663.00
2024-03-06T04:14:37.558Z,98661.00
2024-03-06T04:17:05.091Z,98660.00
2024-03-06T04:19:32.909Z,98658.00
2024-03-06T04:21:59.578Z,98660.00
2024-03-06T04:24:26.162Z,98664.00
2024-03-06T04:26:52.701Z,98662.00
2024-03-06T04:29:19.400Z,98670.00
2024-03-06T04:31:46.027Z,98674.00
2024-03-06T04:34:12.710Z,98672.00
2024-03-06T04:36:39.270Z,98666.00
2024-03-06T04:39:08.949Z,98669.00
2024-03-06T04:41:35.812Z,98674.00
2024-03-06T04:44:02.423Z,98679.00
2024-03-06T04:46:29.070Z,98681.00
2024-03-06T04:48:55.636Z,98679.00
2024-03-06T04:51:22.234Z,98696.00
2024-03-06T04:53:49.321Z,98698.00
2024-03-06T04:56:17.423Z,98695.00
2024-03-06T04:58:45.513Z,98694.00
2024-03-06T05:01:15.361Z,98699.00
2024-03-06T05:58:52.558Z,98769.00
2024-03-06T06:01:23.208Z,98779.00
2024-03-06T06:03:50.126Z,98784.00
2024-03-06T06:06:17.464Z,98788.00
2024-03-06T06:08:45.308Z,98788.00
2024-03-06T06:11:12.651Z,98798.00
2024-03-06T06:13:42.962Z,98799.00
2024-03-06T06:16:09.577Z,98808.00
2024-03-06T06:18:36.275Z,98801.00
2024-03-06T06:21:02.966Z,98812.00
2024-03-06T06:23:29.644Z,98812.00
2024-03-06T06:25:57.141Z,98809.00
2024-03-06T06:28:24.342Z,98816.00
2024-03-06T06:30:53.301Z,98809.00
2024-03-06T06:33:20.662Z,98819.00
2024-03-06T06:35:47.910Z,98832.00
2024-03-06T06:38:15.092Z,98824.00
2024-03-06T06:40:44.469Z,98833.00
2024-03-06T06:43:11.735Z,98838.00
2024-03-06T06:45:39.283Z,98844.00
2024-03-06T06:48:06.344Z,98842.00
2024-03-06T06:50:34.708Z,98848.00
2024-03-06T06:53:01.583Z,98836.00
2024-03-06T06:55:28.566Z,98830.00
2024-03-06T06:57:56.793Z,98843.00
2024-03-06T07:00:24.417Z,98832.00
2024-03-06T07:02:51.756Z,98838.00
2024-03-06T07:05:19.177Z,98854.00
2024-03-06T07:07:45.962Z,98851.00
2024-03-06T07:10:12.685Z,98850.00
2024-03-06T07:12:39.220Z,98856.00
2024-03-06T07:15:07.181Z,98853.00
2024-03-06T07:17:34.237Z,98853.00
2024-03-06T07:20:01.803Z,98857.00
2024-03-06T07:22:28.698Z,98851.00
2024-03-06T07:24:55.717Z,98862.00
2024-03-06T07:27:22.296Z,98867.00
2024-03-06T07:29:48.901Z,98867.00
2024-03-06T07:32:15.657Z,98863.00
2024-03-06T07:34:42.207Z,98870.00
2024-03-06T07:37:08.761Z,98868.00
2024-03-06T07:39:36.022Z,98874.00
2024-03-06T07:42:03.556Z,98864.00
2024-03-06T07:44:30.267Z,98874.00
2024-03-06T07:46:57.052Z,98876.00
2024-03-06T07:49:23.610Z,98881.00
2024-03-06T07:51:50.213Z,98877.00
2024-03-06T07:54:16.811Z,98873.00
2024-03-06T07:56:43.618Z,98886.00
2024-03-06T07:59:12.363Z,98883.00
2024-03-06T08:01:39.547Z,98886.00
2024-03-06T08:04:06.172Z,98888.00
2024-03-06T08:06:33.600Z,98902.00
2024-03-06T08:09:03.133Z,98902.00
2024-03-06T08:11:30.199Z,98903.00
2024-03-06T08:14:00.636Z,98899.00
2024-03-06T08:16:27.281Z,98901.00
2024-03-06T08:18:53.962Z,98906.00
2024-03-06T08:21:24.026Z,98902.00
2024-03-06T08:23:50.870Z,98912.00
2024-03-06T08:26:17.788Z,98916.00
2024-03-06T08:28:44.436Z,98915.00
2024-03-06T08:31:11.133Z,98914.00
2024-03-06T08:33:38.602Z,98912.00
2024-03-06T08:36:05.681Z,98909.00
2024-03-06T08:38:32.342Z,98916.00
2024-03-06T08:40:59.110Z,98911.00
2024-03-06T08:43:25.666Z,98909.00
2024-03-06T08:45:52.945Z,98914.00
2024-03-06T08:48:19.500Z,98916.00
2024-03-06T08:50:46.853Z,98917.00
2024-03-06T08:53:15.011Z,98925.00
2024-03-06T08:55:41.965Z,98925.00
2024-03-06T08:58:10.093Z,98927.00
2024-03-06T09:00:36.674Z,98937.00
2024-03-06T09:03:03.269Z,98943.00
2024-03-06T09:05:29.913Z,98947.00
2024-03-06T09:08:01.346Z,98936.00
2024-03-06T09:10:29.329Z,98935.00
2024-03-06T09:12:55.885Z,98944.00
2024-03-06T09:15:22.510Z,98936.00
2024-03-06T09:17:50.171Z,98934.00
2024-03-06T09:20:17.546Z,98935.00
2024-03-06T09:22:44.458Z,98931.00
2024-03-06T09:25:15.494Z,98933.00
2024-03-06T09:27:43.252Z,98947.00
2024-03-06T09:30:10.593Z,98941.00
2024-03-06T09:32:39.339Z,98952.00
2024-03-06T09:35:07.476Z,98952.00
2024-03-06T09:37:34.104Z,98946.00
2024-03-06T09:40:00.624Z,98955.00
2024-03-06T09:42:27.322Z,98958.00
2024-03-06T09:44:54.000Z,98962.00
2024-03-06T09:47:27.995Z,98956.00
2024-03-06T09:49:55.263Z,98962.00
2024-03-06T09:52:25.750Z,98953.00
2024-03-06T09:54:55.521Z,98962.00
2024-03-06T09:57:22.132Z,98969.00
2024-03-06T09:59:48.773Z,98961.00
2024-03-06T10:02:35.580Z,98971.00
2024-03-06T10:05:02.347Z,98969.00
2024-03-06T10:07:29.028Z,98976.00
2024-03-06T10:09:57.051Z,98975.00
2024-03-06T10:12:23.920Z,98978.00
2024-03-06T10:14:52.377Z,98982.00
2024-03-06T10:17:28.609Z,98983.00
2024-03-06T10:19:55.664Z,98975.00
2024-03-06T10:22:25.272Z,98982.00
2024-03-06T10:24:57.441Z,98975.00
2024-03-06T10:27:23.991Z,98978.00
2024-03-06T10:30:05.503Z,98972.00
2024-03-06T10:32:33.238Z,98980.00
2024-03-06T10:34:59.910Z,98976.00
2024-03-06T10:37:26.484Z,98971.00
2024-03-06T10:39:55.978Z,98981.00
2024-03-06T10:42:25.117Z,98982.00
2024-03-06T10:44:57.419Z,98978.00
2024-03-06T10:47:26.836Z,98978.00
2024-03-06T10:49:55.563Z,98984.00
2024-03-06T10:52:23.065Z,98972.00
2024-03-06T10:54:49.819Z,98986.00
2024-03-06T10:57:16.708Z,98987.00
2024-03-06T10:59:43.645Z,98984.00
2024-03-06T11:02:11.362Z,98987.00
2024-03-06T11:04:41.593Z,98981.00
2024-03-06T11:07:11.822Z,98979.00
2024-03-06T11:09:40.834Z,98972.00
2024-03-06T11:12:08.225Z,98974.00
2024-03-06T11:14:39.656Z,98983.00
2024-03-06T11:17:09.010Z,98980.00
2024-03-06T11:20:20.592Z,98978.00
2024-03-06T11:23:00.535Z,98973.00
2024-03-06T11:25:46.694Z,98977.00
2024-03-06T11:28:28.607Z,98980.00
2024-03-06T11:30:55.121Z,98973.00
2024-03-06T11:33:21.847Z,98972.00
2024-03-06T11:36:21.452Z,98973.00
2024-03-06T11:38:53.842Z,98978.00
2024-03-06T11:41:24.321Z,98982.00
2024-03-06T11:43:54.147Z,98977.00
2024-03-06T11:46:22.447Z,98977.00
2024-03-06T11:48:56.489Z,98976.00
2024-03-06T11:51:24.286Z,98974.00
2024-03-06T11:53:51.705Z,98971.00
2024-03-06T11:56:20.457Z,98973.00
2024-03-06T11:58:49.870Z,98973.00
2024-03-06T12:01:17.488Z,98985.00
2024-03-06T12:03:44.684Z,98972.00
2024-03-06T12:06:11.380Z,98974.00
2024-03-06T12:08:38.284Z,98974.00
2024-03-06T12:11:08.880Z,98976.00
2024-03-06T12:13:36.684Z,98969.00
2024-03-06T12:16:07.853Z,98963.00
2024-03-06T12:18:35.078Z,98968.00
2024-03-06T12:21:03.963Z,98961.00
2024-03-06T12:23:30.853Z,98967.00
2024-03-06T12:26:10.221Z,98968.00
2024-03-06T12:28:38.063Z,98967.00
2024-03-06T12:31:05.418Z,98968.00
2024-03-06T12:33:35.665Z,98962.00
2024-03-06T12:36:11.595Z,98965.00
2024-03-06T12:38:38.592Z,98971.00
2024-03-06T12:41:07.283Z,98960.00
2024-03-06T12:43:35.761Z,98962.00
2024-03-06T12:46:04.419Z,98961.00
2024-03-06T12:48:32.328Z,98961.00
2024-03-06T12:51:06.055Z,98963.00
2024-03-06T12:53:36.178Z,98956.00
2024-03-06T12:56:03.591Z,98964.00
2024-03-06T12:58:32.307Z,98963.00
2024-03-06T13:00:59.825Z,98961.00
2024-03-06T13:03:26.526Z,98962.00
2024-03-06T13:05:53.188Z,98961.00
2024-03-06T13:08:19.894Z,98966.00
2024-03-06T13:10:46.526Z,98955.00
2024-03-06T13:13:13.144Z,98962.00
2024-03-06T13:15:39.842Z,98969.00
2024-03-06T13:18:07.499Z,98964.00
2024-03-06T13:20:34.975Z,98966.00
2024-03-06T13:23:02.340Z,98964.00
2024-03-06T13:25:30.003Z,98968.00
2024-03-06T13:27:57.667Z,98962.00
2024-03-06T13:30:25.668Z,98958.00
2024-03-06T13:32:55.469Z,98963.00
2024-03-06T13:35:22.092Z,98964.00
2024-03-06T13:37:50.269Z,98975.00
2024-03-06T13:40:16.948Z,98968.00
2024-03-06T13:42:44.512Z,98966.00
2024-03-06T13:45:15.615Z,98964.00
2024-03-06T13:47:43.936Z,98964.00
2024-03-06T13:50:15.465Z,98966.00
2024-03-06T13:52:42.757Z,98964.00
2024-03-06T13:55:10.052Z,98967.00
2024-03-06T13:57:38.285Z,98969.00
2024-03-06T14:00:07.017Z,98968.00
2024-03-06T14:02:40.685Z,98977.00
2024-03-06T14:05:07.860Z,98968.00
2024-03-06T14:07:35.292Z,98965.00
2024-03-06T14:10:05.093Z,98968.00
2024-03-06T14:12:33.199Z,98974.00
2024-03-06T14:14:59.765Z,98985.00
2024-03-06T14:17:26.759Z,98968.00
2024-03-06T14:19:53.525Z,98973.00
2024-03-06T14:22:20.216Z,98979.00
2024-03-06T14:24:46.984Z,98978.00
2024-03-06T14:27:17.080Z,98974.00
2024-03-06T14:29:44.125Z,98973.00
2024-03-06T14:32:10.895Z,98971.00
2024-03-06T14:34:37.750Z,98972.00
2024-03-06T14:37:04.748Z,98975.00
2024-03-06T14:39:31.454Z,98976.00
2024-03-06T14:41:58.062Z,98978.00
2024-03-06T14:44:24.678Z,98985.00
2024-03-06T14:46:51.456Z,98982.00
2024-03-06T14:49:18.270Z,98992.00
2024-03-06T14:51:44.965Z,98983.00
2024-03-06T14:54:11.622Z,98989.00
2024-03-06T14:56:38.354Z,98988.00
2024-03-06T14:59:05.053Z,98984.00
2024-03-06T15:01:31.765Z,98993.00
2024-03-06T15:03:59.485Z,98984.00
2024-03-06T15:06:26.625Z,98981.00
2024-03-06T15:08:53.679Z,98984.00
2024-03-06T15:11:22.652Z,98977.00
2024-03-06T15:13:49.265Z,98986.00
2024-03-06T15:16:15.993Z,98988.00
2024-03-06T15:18:42.788Z,98981.00
2024-03-06T15:21:09.945Z,98985.00
2024-03-06T15:23:36.710Z,98994.00
2024-03-06T15:26:03.374Z,98988.00
2024-03-06T15:28:30.024Z,98990.00
2024-03-06T15:30:58.048Z,98994.00
2024-03-06T15:33:25.423Z,98992.00
2024-03-06T15:35:52.152Z,98992.00
2024-03-06T15:38:18.849Z,98987.00
2024-03-06T15:40:45.587Z,98988.00
2024-03-06T15:43:12.156Z,98989.00
2024-03-06T15:45:38.882Z,98986.00
2024-03-06T15:48:08.193Z,98986.00
2024-03-06T15:50:35.305Z,98992.00
2024-03-06T15:53:04.067Z,98991.00
2024-03-06T15:55:31.799Z,98991.00
2024-03-06T15:57:58.398Z,98994.00
2024-03-06T16:00:25.068Z,98988.00
2024-03-06T16:02:51.777Z,99000.00
2024-03-06T16:05:18.430Z,98997.00
2024-03-06T16:07:51.889Z,99002.00
2024-03-06T16:10:26.308Z,99000.00
2024-03-06T16:12:56.527Z,99006.00
2024-03-06T16:15:24.327Z,99002.00
2024-03-06T16:17:51.086Z,99009.00
2024-03-06T16:20:17.837Z,99001.00
2024-03-06T16:22:44.444Z,99007.00
2024-03-06T16:25:11.649Z,99016.00
2024-03-06T16:27:38.444Z,99012.00
2024-03-06T16:30:06.657Z,99009.00
2024-03-06T16:32:34.711Z,99015.00
2024-03-06T16:35:01.416Z,99019.00
2024-03-06T16:37:27.954Z,99018.00
2024-03-06T16:39:54.573Z,99022.00
2024-03-06T16:42:21.800Z,99018.00
2024-03-06T16:44:48.921Z,99027.00
2024-03-06T16:47:15.597Z,99028.00
2024-03-06T16:49:42.158Z,99039.00
2024-03-06T16:52:08.870Z,99030.00
2024-03-06T16:54:35.437Z,99035.00
2024-03-06T16:57:02.150Z,99037.00
2024-03-06T16:59:30.715Z,99040.00
2024-03-06T17:01:57.658Z,99044.00
2024-03-06T17:04:24.419Z,99050.00
2024-03-06T17:06:51.087Z,99049.00
2024-03-06T17:09:17.799Z,99051.00
2024-03-06T17:11:46.334Z,99049.00
2024-03-06T17:14:13.207Z,99052.00
2024-03-06T17:16:39.894Z,99047.00
2024-03-06T17:19:07.036Z,99047.00
2024-03-06T17:21:37.819Z,99050.00
2024-03-06T17:24:06.031Z,99048.00
2024-03-06T17:26:33.597Z,99062.00
2024-03-06T17:29:01.233Z,99062.00
2024-03-06T17:31:27.797Z,99060.00
2024-03-06T17:33:54.375Z,99064.00
2024-03-06T17:36:20.958Z,99059.00
2024-03-06T17:38:48.005Z,99058.00
2024-03-06T17:41:14.973Z,99061.00
2024-03-06T17:43:41.546Z,99065.00
2024-03-06T17:46:08.035Z,99065.00
2024-03-06T17:48:34.664Z,99069.00
2024-03-06T17:51:01.427Z,99070.00
2024-03-06T17:53:28.396Z,99072.00
2024-03-06T17:55:55.035Z,99077.00
2024-03-06T17:58:21.800Z,99077.00
2024-03-06T18:00:48.496Z,99080.00
2024-03-06T18:03:15.312Z,99089.00
2024-03-06T18:05:41.925Z,99092.00
2024-03-06T18:08:08.809Z,99089.00
2024-03-06T18:10:35.454Z,99095.00
2024-03-06T18:13:02.268Z,99092.00
2024-03-06T18:15:28.826Z,99087.00
2024-03-06T18:17:55.971Z,99095.00
2024-03-06T18:20:22.967Z,99095.00
2024-03-06T18:22:49.571Z,99101.00
2024-03-06T18:25:16.283Z,99102.00
2024-03-06T18:27:43.282Z,99104.00
2024-03-06T18:30:10.668Z,99103.00
2024-03-06T18:32:37.349Z,99108.00
2024-03-06T18:35:05.445Z,99098.00
2024-03-06T18:37:32.175Z,99107.00
2024-03-06T18:39:58.957Z,99108.00
2024-03-06T18:42:25.736Z,99104.00
2024-03-06T18:44:52.451Z,99104.00
2024-03-06T18:47:19.254Z,99103.00
2024-03-06T18:49:45.837Z,99106.00
2024-03-06T18:52:12.440Z,99105.00
2024-03-06T18:54:42.105Z,99112.00
2024-03-06T18:57:09.746Z,99106.00
2024-03-06T18:59:36.619Z,99109.00
2024-03-06T19:02:04.246Z,99114.00
2024-03-06T19:04:30.956Z,99107.00
2024-03-06T19:06:58.196Z,99116.00
2024-03-06T19:09:24.942Z,99113.00
2024-03-06T19:11:53.673Z,99117.00
2024-03-06T19:14:22.124Z,99114.00
2024-03-06T19:16:48.868Z,99119.00
2024-03-06T19:19:15.770Z,99113.00
2024-03-06T19:21:42.508Z,99117.00
2024-03-06T19:24:09.151Z,99116.00
2024-03-06T19:26:35.988Z,99106.00
2024-03-06T19:29:05.678Z,99119.00
2024-03-06T19:31:34.869Z,99113.00
2024-03-06T19:34:03.606Z,99118.00
2024-03-06T19:36:30.670Z,99124.00
2024-03-06T19:38:59.681Z,99117.00
2024-03-06T19:41:26.643Z,99105.00
2024-03-06T19:43:56.603Z,99118.00
2024-03-06T19:46:24.390Z,99111.00
2024-03-06T19:48:51.328Z,99115.00
2024-03-06T19:51:18.450Z,99112.00
2024-03-06T19:53:45.723Z,99116.00
2024-03-06T19:56:13.434Z,99114.00
2024-03-06T19:58:40.455Z,99122.00
2024-03-06T20:01:09.911Z,99114.00
2024-03-06T20:03:36.421Z,99114.00
2024-03-06T20:06:03.177Z,99114.00
2024-03-06T20:08:30.293Z,99107.00
2024-03-06T20:10:57.065Z,99110.00
2024-03-06T20:13:25.435Z,99109.00
2024-03-06T20:15:52.634Z,99103.00
2024-03-06T20:18:19.316Z,99111.00
2024-03-06T20:20:46.080Z,99111.00
2024-03-06T20:23:12.783Z,99113.00
2024-03-06T20:25:41.752Z,99113.00
2024-03-06T20:28:10.178Z,99113.00
2024-03-06T20:30:44.193Z,99117.00
2024-03-06T20:33:11.837Z,99119.00
2024-03-06T20:35:38.955Z,99118.00
2024-03-06T20:38:05.716Z,99110.00
2024-03-06T20:40:35.338Z,99114.00
2024-03-06T20:43:02.009Z,99111.00
2024-03-06T20:45:28.573Z,99113.00
2024-03-06T20:48:01.756Z,99105.00
2024-03-06T20:50:28.553Z,99110.00
2024-03-06T20:52:55.187Z,99100.00
2024-03-06T20:55:21.842Z,99102.00
2024-03-06T20:57:48.374Z,99097.00
2024-03-06T21:00:20.005Z,99103.00
2024-03-06T21:02:47.816Z,99099.00
2024-03-06T21:05:14.564Z,99094.00
2024-03-06T21:07:42.136Z,99091.00
2024-03-06T21:10:10.205Z,99084.00
2024-03-06T21:12:37.372Z,99090.00
2024-03-06T21:15:06.554Z,99092.00
2024-03-06T21:17:33.213Z,99106.00
2024-03-06T21:20:02.814Z,99082.00
2024-03-06T21:22:29.442Z,99095.00
2024-03-06T21:24:56.092Z,99104.00
2024-03-06T21:27:23.163Z,99103.00
2024-03-06T21:29:49.749Z,99101.00
2024-03-06T21:32:16.965Z,99100.00
2024-03-06T21:34:43.818Z,99112.00
2024-03-06T21:37:10.854Z,99113.00
2024-03-06T21:39:37.943Z,99110.00
2024-03-06T21:42:06.058Z,99107.00
2024-03-06T21:44:33.055Z,99100.00
2024-03-06T21:46:59.727Z,99102.00
2024-03-06T21:49:31.936Z,99106.00
2024-03-06T21:52:02.116Z,99096.00
2024-03-06T21:54:28.701Z,99098.00
2024-03-06T21:56:55.432Z,99096.00
2024-03-06T21:59:22.886Z,99108.00
2024-03-06T22:01:49.747Z,99114.00
2024-03-06T22:04:17.548Z,99107.00
2024-03-06T22:06:44.676Z,99114.00
2024-03-06T22:09:11.813Z,99118.00
2024-03-06T22:11:45.350Z,99110.00
2024-03-06T22:14:12.849Z,99119.00
2024-03-06T22:16:41.005Z,99112.00
2024-03-06T22:19:15.085Z,99124.00
2024-03-06T22:21:42.682Z,99122.00
2024-03-06T22:24:09.339Z,99115.00
2024-03-06T22:26:35.886Z,99117.00
2024-03-06T22:29:04.726Z,99126.00
2024-03-06T22:31:31.390Z,99125.00
2024-03-06T22:33:57.976Z,99122.00
2024-03-06T22:36:25.055Z,99121.00
2024-03-06T22:38:51.717Z,99123.00
2024-03-06T22:41:30.147Z,99130.00
2024-03-06T22:43:56.681Z,99127.00
2024-03-06T22:46:23.931Z,99123.00
2024-03-06T22:48:59.705Z,99116.00
2024-03-06T22:51:26.492Z,99118.00
2024-03-06T22:53:53.037Z,99120.00
2024-03-06T22:56:20.482Z,99120.00
2024-03-06T22:58:47.088Z,99118.00
2024-03-06T23:01:13.962Z,99112.00
2024-03-06T23:03:40.603Z,99123.00
2024-03-06T23:06:07.537Z,99114.00
2024-03-06T23:08:34.050Z,99121.00
2024-03-06T23:11:00.794Z,99115.00
2024-03-06T23:13:27.369Z,99109.00
2024-03-06T23:15:54.139Z,99111.00
2024-03-06T23:18:21.255Z,99122.00
2024-03-06T23:20:48.934Z,99110.00
2024-03-06T23:23:15.586Z,99107.00
2024-03-06T23:25:42.293Z,99113.00
2024-03-06T23:28:08.913Z,99109.00
2024-03-06T23:30:37.589Z,99121.00
2024-03-06T23:33:04.286Z,99107.00
2024-03-06T23:35:30.960Z,99112.00
2024-03-06T23:37:57.620Z,99117.00
2024-03-06T23:40:24.375Z,99106.00
2024-03-06T23:42:50.914Z,99107.00
2024-03-06T23:45:18.220Z,99115.00
2024-03-06T23:47:48.591Z,99101.00
2024-03-06T23:50:19.054Z,99112.00
2024-03-06T23:52:46.094Z,99108.00
2024-03-06T23:55:12.846Z,99111.00
2024-03-06T23:57:39.842Z,99110.00
